sensor_id;sensor_type;location;lat;lon;timestamp;P1;durP1;ratioP1;P2;durP2;ratioP2
74495;SDS011;62979;55.720;37.606;2022-08-21T00:01:18;48.08;;;33.72;;
74495;SDS011;62979;55.720;37.606;2022-08-21T00:03:48;52.33;;;34.45;;
74495;SDS011;62979;55.720;37.606;2022-08-21T00:06:17;45.55;;;33.83;;
74495;SDS011;62979;55.720;37.606;2022-08-21T00:08:45;49.72;;;36.47;;
74495;SDS011;62979;55.720;37.606;2022-08-21T00:11:12;49.15;;;34.30;;
74495;SDS011;62979;55.720;37.606;2022-08-21T00:13:39;50.72;;;35.38;;
74495;SDS011;62979;55.720;37.606;2022-08-21T00:16:06;50.15;;;37.88;;
74495;SDS011;62979;55.720;37.606;2022-08-21T00:18:34;45.20;;;34.00;;
74495;SDS011;62979;55.720;37.606;2022-08-21T00:21:01;46.95;;;34.20;;
74495;SDS011;62979;55.720;37.606;2022-08-21T00:23:32;49.90;;;35.85;;
74495;SDS011;62979;55.720;37.606;2022-08-21T00:26:01;48.10;;;35.63;;
74495;SDS011;62979;55.720;37.606;2022-08-21T00:28:29;50.47;;;37.17;;
74495;SDS011;62979;55.720;37.606;2022-08-21T00:30:58;44.42;;;34.55;;
74495;SDS011;62979;55.720;37.606;2022-08-21T00:33:25;45.70;;;34.20;;
74495;SDS011;62979;55.720;37.606;2022-08-21T00:35:52;42.65;;;34.28;;
74495;SDS011;62979;55.720;37.606;2022-08-21T00:38:20;48.80;;;34.65;;
74495;SDS011;62979;55.720;37.606;2022-08-21T00:40:50;54.17;;;35.97;;
74495;SDS011;62979;55.720;37.606;2022-08-21T00:43:22;55.28;;;35.55;;
74495;SDS011;62979;55.720;37.606;2022-08-21T00:45:53;45.38;;;34.75;;
74495;SDS011;62979;55.720;37.606;2022-08-21T00:48:22;52.10;;;35.58;;
74495;SDS011;62979;55.720;37.606;2022-08-21T00:50:53;45.10;;;33.55;;
74495;SDS011;62979;55.720;37.606;2022-08-21T00:53:26;46.85;;;34.65;;
74495;SDS011;62979;55.720;37.606;2022-08-21T00:55:57;46.10;;;33.22;;
74495;SDS011;62979;55.720;37.606;2022-08-21T00:58:27;48.63;;;32.78;;
74495;SDS011;62979;55.720;37.606;2022-08-21T01:00:57;48.22;;;34.22;;
74495;SDS011;62979;55.720;37.606;2022-08-21T01:03:28;48.50;;;33.70;;
74495;SDS011;62979;55.720;37.606;2022-08-21T01:05:55;46.92;;;34.03;;
74495;SDS011;62979;55.720;37.606;2022-08-21T01:08:22;47.55;;;34.33;;
74495;SDS011;62979;55.720;37.606;2022-08-21T01:10:50;44.85;;;32.13;;
74495;SDS011;62979;55.720;37.606;2022-08-21T01:13:20;46.00;;;33.92;;
74495;SDS011;62979;55.720;37.606;2022-08-21T01:15:50;42.55;;;31.52;;
74495;SDS011;62979;55.720;37.606;2022-08-21T01:18:20;42.45;;;31.55;;
74495;SDS011;62979;55.720;37.606;2022-08-21T01:21:03;45.88;;;32.72;;
74495;SDS011;62979;55.720;37.606;2022-08-21T01:23:33;47.42;;;32.58;;
74495;SDS011;62979;55.720;37.606;2022-08-21T01:26:03;42.00;;;30.27;;
74495;SDS011;62979;55.720;37.606;2022-08-21T01:28:33;39.80;;;29.70;;
74495;SDS011;62979;55.720;37.606;2022-08-21T01:31:05;41.72;;;30.10;;
74495;SDS011;62979;55.720;37.606;2022-08-21T01:33:37;41.10;;;31.15;;
74495;SDS011;62979;55.720;37.606;2022-08-21T01:36:14;41.67;;;29.95;;
74495;SDS011;62979;55.720;37.606;2022-08-21T01:38:42;44.63;;;29.73;;
74495;SDS011;62979;55.720;37.606;2022-08-21T01:41:09;45.60;;;30.48;;
74495;SDS011;62979;55.720;37.606;2022-08-21T01:43:36;49.33;;;30.38;;
74495;SDS011;62979;55.720;37.606;2022-08-21T01:46:03;38.63;;;27.80;;
74495;SDS011;62979;55.720;37.606;2022-08-21T01:48:31;42.05;;;29.25;;
74495;SDS011;62979;55.720;37.606;2022-08-21T01:50:59;37.35;;;28.23;;
74495;SDS011;62979;55.720;37.606;2022-08-21T01:53:27;45.67;;;29.13;;
74495;SDS011;62979;55.720;37.606;2022-08-21T01:55:55;41.28;;;28.38;;
74495;SDS011;62979;55.720;37.606;2022-08-21T01:58:22;40.90;;;27.33;;
74495;SDS011;62979;55.720;37.606;2022-08-21T02:00:49;42.83;;;28.17;;
74495;SDS011;62979;55.720;37.606;2022-08-21T02:03:16;42.25;;;28.77;;
74495;SDS011;62979;55.720;37.606;2022-08-21T02:05:43;37.08;;;27.17;;
74495;SDS011;62979;55.720;37.606;2022-08-21T02:08:10;38.58;;;27.27;;
74495;SDS011;62979;55.720;37.606;2022-08-21T02:10:39;35.05;;;26.75;;
74495;SDS011;62979;55.720;37.606;2022-08-21T02:13:07;38.08;;;28.00;;
74495;SDS011;62979;55.720;37.606;2022-08-21T02:15:34;36.78;;;27.52;;
74495;SDS011;62979;55.720;37.606;2022-08-21T02:18:02;37.70;;;28.10;;
74495;SDS011;62979;55.720;37.606;2022-08-21T02:20:33;37.10;;;26.38;;
74495;SDS011;62979;55.720;37.606;2022-08-21T02:23:04;39.35;;;25.67;;
74495;SDS011;62979;55.720;37.606;2022-08-21T02:25:33;38.22;;;26.60;;
74495;SDS011;62979;55.720;37.606;2022-08-21T02:28:04;36.47;;;25.95;;
74495;SDS011;62979;55.720;37.606;2022-08-21T02:30:35;38.10;;;25.80;;
74495;SDS011;62979;55.720;37.606;2022-08-21T02:33:06;34.97;;;25.40;;
74495;SDS011;62979;55.720;37.606;2022-08-21T02:35:36;32.63;;;24.75;;
74495;SDS011;62979;55.720;37.606;2022-08-21T02:38:06;36.03;;;25.08;;
74495;SDS011;62979;55.720;37.606;2022-08-21T02:40:36;34.72;;;25.10;;
74495;SDS011;62979;55.720;37.606;2022-08-21T02:43:07;35.85;;;24.52;;
74495;SDS011;62979;55.720;37.606;2022-08-21T02:45:34;34.88;;;25.05;;
74495;SDS011;62979;55.720;37.606;2022-08-21T02:48:03;34.17;;;25.88;;
74495;SDS011;62979;55.720;37.606;2022-08-21T02:50:35;37.15;;;24.70;;
74495;SDS011;62979;55.720;37.606;2022-08-21T02:53:05;37.45;;;24.85;;
74495;SDS011;62979;55.720;37.606;2022-08-21T02:55:35;40.92;;;26.75;;
74495;SDS011;62979;55.720;37.606;2022-08-21T02:58:04;36.65;;;25.75;;
74495;SDS011;62979;55.720;37.606;2022-08-21T03:00:34;37.70;;;25.15;;
74495;SDS011;62979;55.720;37.606;2022-08-21T03:03:04;35.70;;;24.48;;
74495;SDS011;62979;55.720;37.606;2022-08-21T03:05:32;35.65;;;25.58;;
74495;SDS011;62979;55.720;37.606;2022-08-21T03:08:03;34.50;;;24.88;;
74495;SDS011;62979;55.720;37.606;2022-08-21T03:10:34;34.70;;;25.90;;
74495;SDS011;62979;55.720;37.606;2022-08-21T03:13:02;34.47;;;25.58;;
74495;SDS011;62979;55.720;37.606;2022-08-21T03:15:30;36.75;;;25.10;;
74495;SDS011;62979;55.720;37.606;2022-08-21T03:17:58;35.58;;;26.63;;
74495;SDS011;62979;55.720;37.606;2022-08-21T03:20:27;40.20;;;25.52;;
74495;SDS011;62979;55.720;37.606;2022-08-21T03:22:57;33.55;;;24.30;;
74495;SDS011;62979;55.720;37.606;2022-08-21T03:25:26;41.70;;;27.17;;
74495;SDS011;62979;55.720;37.606;2022-08-21T03:27:57;39.10;;;27.25;;
74495;SDS011;62979;55.720;37.606;2022-08-21T03:32:52;38.28;;;28.33;;
74495;SDS011;62979;55.720;37.606;2022-08-21T03:35:20;34.72;;;27.25;;
74495;SDS011;62979;55.720;37.606;2022-08-21T03:37:47;41.30;;;27.25;;
74495;SDS011;62979;55.720;37.606;2022-08-21T03:40:15;35.55;;;23.70;;
74495;SDS011;62979;55.720;37.606;2022-08-21T03:42:45;36.45;;;27.95;;
74495;SDS011;62979;55.720;37.606;2022-08-21T03:45:13;36.05;;;27.65;;
74495;SDS011;62979;55.720;37.606;2022-08-21T03:47:50;39.15;;;26.52;;
74495;SDS011;62979;55.720;37.606;2022-08-21T03:50:22;40.15;;;28.50;;
74495;SDS011;62979;55.720;37.606;2022-08-21T03:52:51;35.92;;;27.33;;
74495;SDS011;62979;55.720;37.606;2022-08-21T03:55:18;40.75;;;26.90;;
74495;SDS011;62979;55.720;37.606;2022-08-21T03:57:45;37.30;;;26.80;;
74495;SDS011;62979;55.720;37.606;2022-08-21T04:00:13;35.55;;;26.50;;
74495;SDS011;62979;55.720;37.606;2022-08-21T04:02:43;33.97;;;26.30;;
74495;SDS011;62979;55.720;37.606;2022-08-21T04:05:13;38.03;;;27.50;;
74495;SDS011;62979;55.720;37.606;2022-08-21T04:07:52;33.15;;;26.70;;
74495;SDS011;62979;55.720;37.606;2022-08-21T04:10:23;38.50;;;26.70;;
74495;SDS011;62979;55.720;37.606;2022-08-21T04:12:51;34.88;;;27.15;;
74495;SDS011;62979;55.720;37.606;2022-08-21T04:15:21;35.47;;;27.38;;
74495;SDS011;62979;55.720;37.606;2022-08-21T04:17:50;43.80;;;28.33;;
74495;SDS011;62979;55.720;37.606;2022-08-21T04:22:47;36.28;;;29.23;;
74495;SDS011;62979;55.720;37.606;2022-08-21T04:25:16;44.22;;;29.33;;
74495;SDS011;62979;55.720;37.606;2022-08-21T04:27:46;36.75;;;26.75;;
74495;SDS011;62979;55.720;37.606;2022-08-21T04:30:15;37.35;;;28.48;;
74495;SDS011;62979;55.720;37.606;2022-08-21T04:32:43;37.78;;;28.23;;
74495;SDS011;62979;55.720;37.606;2022-08-21T04:35:12;35.25;;;27.80;;
74495;SDS011;62979;55.720;37.606;2022-08-21T04:37:42;41.33;;;30.38;;
74495;SDS011;62979;55.720;37.606;2022-08-21T04:40:10;40.20;;;30.52;;
74495;SDS011;62979;55.720;37.606;2022-08-21T04:42:41;42.35;;;30.02;;
74495;SDS011;62979;55.720;37.606;2022-08-21T04:45:15;45.08;;;29.80;;
74495;SDS011;62979;55.720;37.606;2022-08-21T04:47:47;37.65;;;29.02;;
74495;SDS011;62979;55.720;37.606;2022-08-21T04:50:16;39.03;;;29.98;;
74495;SDS011;62979;55.720;37.606;2022-08-21T04:52:46;46.15;;;33.22;;
74495;SDS011;62979;55.720;37.606;2022-08-21T04:55:14;42.08;;;31.50;;
74495;SDS011;62979;55.720;37.606;2022-08-21T04:57:44;44.83;;;33.97;;
74495;SDS011;62979;55.720;37.606;2022-08-21T05:00:13;47.15;;;31.88;;
74495;SDS011;62979;55.720;37.606;2022-08-21T05:02:43;51.45;;;35.35;;
74495;SDS011;62979;55.720;37.606;2022-08-21T05:05:12;40.90;;;32.10;;
74495;SDS011;62979;55.720;37.606;2022-08-21T05:07:40;48.08;;;34.38;;
74495;SDS011;62979;55.720;37.606;2022-08-21T05:10:12;46.30;;;36.10;;
74495;SDS011;62979;55.720;37.606;2022-08-21T05:12:40;43.80;;;34.25;;
74495;SDS011;62979;55.720;37.606;2022-08-21T05:15:09;46.03;;;34.10;;
74495;SDS011;62979;55.720;37.606;2022-08-21T05:17:38;51.53;;;35.72;;
74495;SDS011;62979;55.720;37.606;2022-08-21T05:20:05;50.42;;;34.35;;
74495;SDS011;62979;55.720;37.606;2022-08-21T05:22:34;46.25;;;34.83;;
74495;SDS011;62979;55.720;37.606;2022-08-21T05:25:01;47.63;;;35.10;;
74495;SDS011;62979;55.720;37.606;2022-08-21T05:29:57;51.90;;;36.85;;
74495;SDS011;62979;55.720;37.606;2022-08-21T05:32:24;52.65;;;36.35;;
74495;SDS011;62979;55.720;37.606;2022-08-21T05:34:52;49.55;;;35.10;;
74495;SDS011;62979;55.720;37.606;2022-08-21T05:37:20;49.53;;;34.22;;
74495;SDS011;62979;55.720;37.606;2022-08-21T05:39:47;48.63;;;34.08;;
74495;SDS011;62979;55.720;37.606;2022-08-21T05:42:14;49.17;;;35.22;;
74495;SDS011;62979;55.720;37.606;2022-08-21T05:44:42;47.78;;;34.40;;
74495;SDS011;62979;55.720;37.606;2022-08-21T05:47:10;50.78;;;33.50;;
74495;SDS011;62979;55.720;37.606;2022-08-21T05:49:38;50.95;;;36.20;;
74495;SDS011;62979;55.720;37.606;2022-08-21T05:52:05;49.85;;;35.20;;
74495;SDS011;62979;55.720;37.606;2022-08-21T05:54:32;43.72;;;34.45;;
74495;SDS011;62979;55.720;37.606;2022-08-21T05:56:59;43.70;;;34.25;;
74495;SDS011;62979;55.720;37.606;2022-08-21T05:59:26;53.50;;;34.50;;
74495;SDS011;62979;55.720;37.606;2022-08-21T06:04:21;57.30;;;36.30;;
74495;SDS011;62979;55.720;37.606;2022-08-21T06:06:48;49.03;;;36.35;;
74495;SDS011;62979;55.720;37.606;2022-08-21T06:09:15;51.13;;;37.78;;
74495;SDS011;62979;55.720;37.606;2022-08-21T06:11:42;50.38;;;34.53;;
74495;SDS011;62979;55.720;37.606;2022-08-21T06:14:09;47.67;;;34.50;;
74495;SDS011;62979;55.720;37.606;2022-08-21T06:16:41;48.67;;;33.85;;
74495;SDS011;62979;55.720;37.606;2022-08-21T06:19:09;47.85;;;33.33;;
74495;SDS011;62979;55.720;37.606;2022-08-21T06:21:36;51.45;;;36.75;;
74495;SDS011;62979;55.720;37.606;2022-08-21T06:24:03;46.95;;;34.50;;
74495;SDS011;62979;55.720;37.606;2022-08-21T06:26:31;52.22;;;35.85;;
74495;SDS011;62979;55.720;37.606;2022-08-21T06:28:59;51.20;;;35.53;;
74495;SDS011;62979;55.720;37.606;2022-08-21T06:31:26;45.20;;;35.17;;
74495;SDS011;62979;55.720;37.606;2022-08-21T06:33:55;48.63;;;33.33;;
74495;SDS011;62979;55.720;37.606;2022-08-21T06:38:51;49.30;;;35.13;;
74495;SDS011;62979;55.720;37.606;2022-08-21T06:41:18;46.10;;;33.78;;
74495;SDS011;62979;55.720;37.606;2022-08-21T06:46:12;59.05;;;38.47;;
74495;SDS011;62979;55.720;37.606;2022-08-21T06:48:39;68.15;;;40.10;;
74495;SDS011;62979;55.720;37.606;2022-08-21T06:51:06;52.90;;;39.33;;
74495;SDS011;62979;55.720;37.606;2022-08-21T06:53:35;54.13;;;38.75;;
74495;SDS011;62979;55.720;37.606;2022-08-21T06:56:02;57.63;;;37.85;;
74495;SDS011;62979;55.720;37.606;2022-08-21T06:58:30;54.00;;;36.97;;
74495;SDS011;62979;55.720;37.606;2022-08-21T07:00:57;55.55;;;37.45;;
74495;SDS011;62979;55.720;37.606;2022-08-21T07:03:25;51.92;;;34.95;;
74495;SDS011;62979;55.720;37.606;2022-08-21T07:05:55;49.55;;;34.65;;
74495;SDS011;62979;55.720;37.606;2022-08-21T07:08:23;48.45;;;35.15;;
74495;SDS011;62979;55.720;37.606;2022-08-21T07:10:54;50.97;;;36.67;;
74495;SDS011;62979;55.720;37.606;2022-08-21T07:13:24;49.05;;;31.38;;
74495;SDS011;62979;55.720;37.606;2022-08-21T07:15:52;48.00;;;33.80;;
74495;SDS011;62979;55.720;37.606;2022-08-21T07:18:19;47.63;;;33.97;;
74495;SDS011;62979;55.720;37.606;2022-08-21T07:20:46;41.42;;;31.35;;
74495;SDS011;62979;55.720;37.606;2022-08-21T07:23:16;35.15;;;29.55;;
74495;SDS011;62979;55.720;37.606;2022-08-21T07:25:50;42.88;;;29.85;;
74495;SDS011;62979;55.720;37.606;2022-08-21T07:28:19;39.25;;;31.48;;
74495;SDS011;62979;55.720;37.606;2022-08-21T07:30:46;38.13;;;29.13;;
74495;SDS011;62979;55.720;37.606;2022-08-21T07:33:19;36.60;;;26.17;;
74495;SDS011;62979;55.720;37.606;2022-08-21T07:38:13;41.35;;;29.55;;
74495;SDS011;62979;55.720;37.606;2022-08-21T07:40:40;43.50;;;30.63;;
74495;SDS011;62979;55.720;37.606;2022-08-21T07:43:08;42.67;;;29.52;;
74495;SDS011;62979;55.720;37.606;2022-08-21T07:45:36;42.15;;;28.50;;
74495;SDS011;62979;55.720;37.606;2022-08-21T07:48:04;43.10;;;30.08;;
74495;SDS011;62979;55.720;37.606;2022-08-21T07:50:31;39.95;;;30.48;;
74495;SDS011;62979;55.720;37.606;2022-08-21T07:52:58;41.90;;;31.17;;
74495;SDS011;62979;55.720;37.606;2022-08-21T07:55:26;43.42;;;30.23;;
74495;SDS011;62979;55.720;37.606;2022-08-21T07:57:53;39.38;;;29.55;;
74495;SDS011;62979;55.720;37.606;2022-08-21T08:00:21;40.20;;;30.00;;
74495;SDS011;62979;55.720;37.606;2022-08-21T08:02:52;44.90;;;28.80;;
74495;SDS011;62979;55.720;37.606;2022-08-21T08:05:21;38.53;;;29.90;;
74495;SDS011;62979;55.720;37.606;2022-08-21T08:07:51;40.13;;;30.30;;
74495;SDS011;62979;55.720;37.606;2022-08-21T08:10:19;39.40;;;31.15;;
74495;SDS011;62979;55.720;37.606;2022-08-21T08:12:48;43.17;;;29.73;;
74495;SDS011;62979;55.720;37.606;2022-08-21T08:15:20;50.08;;;29.70;;
74495;SDS011;62979;55.720;37.606;2022-08-21T08:17:50;39.83;;;29.77;;
74495;SDS011;62979;55.720;37.606;2022-08-21T08:20:20;35.97;;;27.80;;
74495;SDS011;62979;55.720;37.606;2022-08-21T08:22:48;37.15;;;25.67;;
74495;SDS011;62979;55.720;37.606;2022-08-21T08:25:16;34.90;;;26.73;;
74495;SDS011;62979;55.720;37.606;2022-08-21T08:27:45;36.60;;;23.80;;
74495;SDS011;62979;55.720;37.606;2022-08-21T08:30:13;32.22;;;23.90;;
74495;SDS011;62979;55.720;37.606;2022-08-21T08:32:44;32.92;;;23.55;;
74495;SDS011;62979;55.720;37.606;2022-08-21T08:35:13;30.75;;;24.17;;
74495;SDS011;62979;55.720;37.606;2022-08-21T08:37:41;34.55;;;23.23;;
74495;SDS011;62979;55.720;37.606;2022-08-21T08:40:11;34.03;;;22.85;;
74495;SDS011;62979;55.720;37.606;2022-08-21T08:42:44;31.67;;;22.63;;
74495;SDS011;62979;55.720;37.606;2022-08-21T08:45:16;34.42;;;21.38;;
74495;SDS011;62979;55.720;37.606;2022-08-21T08:47:51;29.35;;;20.75;;
74495;SDS011;62979;55.720;37.606;2022-08-21T08:50:25;33.22;;;20.30;;
74495;SDS011;62979;55.720;37.606;2022-08-21T08:52:59;27.40;;;18.55;;
74495;SDS011;62979;55.720;37.606;2022-08-21T08:55:33;28.05;;;20.13;;
74495;SDS011;62979;55.720;37.606;2022-08-21T08:58:04;25.02;;;20.00;;
74495;SDS011;62979;55.720;37.606;2022-08-21T09:00:33;27.73;;;18.58;;
74495;SDS011;62979;55.720;37.606;2022-08-21T09:05:32;26.45;;;20.35;;
74495;SDS011;62979;55.720;37.606;2022-08-21T09:08:15;24.58;;;18.92;;
74495;SDS011;62979;55.720;37.606;2022-08-21T09:11:15;22.20;;;16.55;;
74495;SDS011;62979;55.720;37.606;2022-08-21T09:13:57;19.13;;;16.17;;
74495;SDS011;62979;55.720;37.606;2022-08-21T09:16:44;20.70;;;14.95;;
74495;SDS011;62979;55.720;37.606;2022-08-21T09:19:25;22.42;;;16.48;;
74495;SDS011;62979;55.720;37.606;2022-08-21T09:22:16;21.70;;;15.25;;
74495;SDS011;62979;55.720;37.606;2022-08-21T09:24:59;20.60;;;16.30;;
74495;SDS011;62979;55.720;37.606;2022-08-21T09:27:38;22.23;;;15.82;;
74495;SDS011;62979;55.720;37.606;2022-08-21T09:30:06;26.08;;;16.05;;
74495;SDS011;62979;55.720;37.606;2022-08-21T09:32:36;27.15;;;14.93;;
74495;SDS011;62979;55.720;37.606;2022-08-21T09:35:07;21.95;;;15.27;;
74495;SDS011;62979;55.720;37.606;2022-08-21T09:37:49;22.13;;;15.10;;
74495;SDS011;62979;55.720;37.606;2022-08-21T09:40:25;17.73;;;15.20;;
74495;SDS011;62979;55.720;37.606;2022-08-21T09:43:01;18.73;;;14.75;;
74495;SDS011;62979;55.720;37.606;2022-08-21T09:45:31;29.05;;;15.75;;
74495;SDS011;62979;55.720;37.606;2022-08-21T09:48:09;25.98;;;16.63;;
74495;SDS011;62979;55.720;37.606;2022-08-21T09:50:40;20.77;;;16.73;;
74495;SDS011;62979;55.720;37.606;2022-08-21T09:53:16;26.55;;;15.65;;
74495;SDS011;62979;55.720;37.606;2022-08-21T09:55:48;22.65;;;15.25;;
74495;SDS011;62979;55.720;37.606;2022-08-21T09:58:37;21.77;;;15.85;;
74495;SDS011;62979;55.720;37.606;2022-08-21T10:01:11;17.52;;;14.23;;
74495;SDS011;62979;55.720;37.606;2022-08-21T10:03:42;21.48;;;13.90;;
74495;SDS011;62979;55.720;37.606;2022-08-21T10:06:10;20.88;;;13.80;;
74495;SDS011;62979;55.720;37.606;2022-08-21T10:08:50;19.73;;;14.02;;
74495;SDS011;62979;55.720;37.606;2022-08-21T10:11:28;17.63;;;14.15;;
74495;SDS011;62979;55.720;37.606;2022-08-21T10:13:59;22.52;;;13.88;;
74495;SDS011;62979;55.720;37.606;2022-08-21T10:16:45;20.35;;;14.35;;
74495;SDS011;62979;55.720;37.606;2022-08-21T10:19:31;20.98;;;14.07;;
74495;SDS011;62979;55.720;37.606;2022-08-21T10:22:12;19.63;;;12.95;;
74495;SDS011;62979;55.720;37.606;2022-08-21T10:24:57;14.60;;;10.63;;
74495;SDS011;62979;55.720;37.606;2022-08-21T10:27:37;17.40;;;11.13;;
74495;SDS011;62979;55.720;37.606;2022-08-21T10:30:26;14.65;;;9.30;;
74495;SDS011;62979;55.720;37.606;2022-08-21T10:33:08;13.25;;;6.85;;
74495;SDS011;62979;55.720;37.606;2022-08-21T10:35:52;11.80;;;6.95;;
74495;SDS011;62979;55.720;37.606;2022-08-21T10:38:38;19.98;;;6.35;;
74495;SDS011;62979;55.720;37.606;2022-08-21T10:41:28;8.85;;;6.50;;
74495;SDS011;62979;55.720;37.606;2022-08-21T10:46:57;12.40;;;6.32;;
74495;SDS011;62979;55.720;37.606;2022-08-21T10:49:32;10.07;;;6.43;;
74495;SDS011;62979;55.720;37.606;2022-08-21T10:55:18;9.77;;;5.63;;
74495;SDS011;62979;55.720;37.606;2022-08-21T11:00:28;8.43;;;5.35;;
74495;SDS011;62979;55.720;37.606;2022-08-21T11:03:03;10.98;;;5.68;;
74495;SDS011;62979;55.720;37.606;2022-08-21T11:05:40;13.82;;;5.30;;
74495;SDS011;62979;55.720;37.606;2022-08-21T11:08:15;12.73;;;3.72;;
74495;SDS011;62979;55.720;37.606;2022-08-21T11:10:50;9.25;;;5.00;;
74495;SDS011;62979;55.720;37.606;2022-08-21T11:13:37;11.32;;;4.72;;
74495;SDS011;62979;55.720;37.606;2022-08-21T11:16:12;11.23;;;4.20;;
74495;SDS011;62979;55.720;37.606;2022-08-21T11:18:53;9.82;;;4.82;;
74495;SDS011;62979;55.720;37.606;2022-08-21T11:21:29;11.05;;;4.88;;
74495;SDS011;62979;55.720;37.606;2022-08-21T11:24:21;12.07;;;6.30;;
74495;SDS011;62979;55.720;37.606;2022-08-21T11:26:59;11.65;;;6.97;;
74495;SDS011;62979;55.720;37.606;2022-08-21T11:29:37;13.05;;;7.82;;
74495;SDS011;62979;55.720;37.606;2022-08-21T11:32:20;17.63;;;9.05;;
74495;SDS011;62979;55.720;37.606;2022-08-21T11:35:12;19.77;;;9.85;;
74495;SDS011;62979;55.720;37.606;2022-08-21T11:37:55;16.08;;;9.77;;
74495;SDS011;62979;55.720;37.606;2022-08-21T11:40:43;17.90;;;9.48;;
74495;SDS011;62979;55.720;37.606;2022-08-21T11:43:29;15.90;;;11.68;;
74495;SDS011;62979;55.720;37.606;2022-08-21T11:46:19;21.23;;;12.68;;
74495;SDS011;62979;55.720;37.606;2022-08-21T11:49:03;19.88;;;12.15;;
74495;SDS011;62979;55.720;37.606;2022-08-21T11:51:50;19.23;;;12.18;;
74495;SDS011;62979;55.720;37.606;2022-08-21T11:54:33;18.65;;;11.23;;
74495;SDS011;62979;55.720;37.606;2022-08-21T11:57:05;19.55;;;12.65;;
74495;SDS011;62979;55.720;37.606;2022-08-21T12:02:20;17.52;;;12.15;;
74495;SDS011;62979;55.720;37.606;2022-08-21T12:04:55;18.25;;;11.45;;
74495;SDS011;62979;55.720;37.606;2022-08-21T12:07:31;19.70;;;11.52;;
74495;SDS011;62979;55.720;37.606;2022-08-21T12:10:04;14.70;;;10.35;;
74495;SDS011;62979;55.720;37.606;2022-08-21T12:12:36;14.40;;;10.15;;
74495;SDS011;62979;55.720;37.606;2022-08-21T12:17:56;18.85;;;10.15;;
74495;SDS011;62979;55.720;37.606;2022-08-21T12:20:36;16.70;;;9.52;;
74495;SDS011;62979;55.720;37.606;2022-08-21T12:23:18;15.02;;;7.88;;
74495;SDS011;62979;55.720;37.606;2022-08-21T12:26:02;13.30;;;9.88;;
74495;SDS011;62979;55.720;37.606;2022-08-21T12:28:46;15.85;;;9.27;;
74495;SDS011;62979;55.720;37.606;2022-08-21T12:31:21;17.58;;;9.73;;
74495;SDS011;62979;55.720;37.606;2022-08-21T12:33:56;14.77;;;9.20;;
74495;SDS011;62979;55.720;37.606;2022-08-21T12:36:34;20.73;;;9.45;;
74495;SDS011;62979;55.720;37.606;2022-08-21T12:39:11;17.17;;;7.38;;
74495;SDS011;62979;55.720;37.606;2022-08-21T12:41:49;23.33;;;9.20;;
74495;SDS011;62979;55.720;37.606;2022-08-21T12:44:26;12.52;;;8.00;;
74495;SDS011;62979;55.720;37.606;2022-08-21T12:47:03;15.13;;;8.20;;
74495;SDS011;62979;55.720;37.606;2022-08-21T12:49:43;14.30;;;8.07;;
74495;SDS011;62979;55.720;37.606;2022-08-21T12:52:23;12.13;;;8.05;;
74495;SDS011;62979;55.720;37.606;2022-08-21T12:54:56;16.10;;;8.63;;
74495;SDS011;62979;55.720;37.606;2022-08-21T12:57:24;20.80;;;10.85;;
74495;SDS011;62979;55.720;37.606;2022-08-21T12:59:54;14.82;;;9.43;;
74495;SDS011;62979;55.720;37.606;2022-08-21T13:02:25;19.45;;;9.65;;
74495;SDS011;62979;55.720;37.606;2022-08-21T13:04:59;14.82;;;7.97;;
74495;SDS011;62979;55.720;37.606;2022-08-21T13:07:31;16.58;;;9.45;;
74495;SDS011;62979;55.720;37.606;2022-08-21T13:10:03;15.43;;;9.68;;
74495;SDS011;62979;55.720;37.606;2022-08-21T13:12:40;17.33;;;9.88;;
74495;SDS011;62979;55.720;37.606;2022-08-21T13:15:09;14.13;;;8.20;;
74495;SDS011;62979;55.720;37.606;2022-08-21T13:17:38;16.38;;;10.40;;
74495;SDS011;62979;55.720;37.606;2022-08-21T13:20:20;25.45;;;11.50;;
74495;SDS011;62979;55.720;37.606;2022-08-21T13:22:50;12.68;;;7.07;;
74495;SDS011;62979;55.720;37.606;2022-08-21T13:25:19;15.55;;;7.57;;
74495;SDS011;62979;55.720;37.606;2022-08-21T13:27:57;15.25;;;7.50;;
74495;SDS011;62979;55.720;37.606;2022-08-21T13:30:27;14.93;;;7.15;;
74495;SDS011;62979;55.720;37.606;2022-08-21T13:32:56;15.00;;;5.70;;
74495;SDS011;62979;55.720;37.606;2022-08-21T13:35:30;9.52;;;6.32;;
74495;SDS011;62979;55.720;37.606;2022-08-21T13:38:12;10.27;;;6.40;;
74495;SDS011;62979;55.720;37.606;2022-08-21T13:40:41;16.88;;;5.38;;
74495;SDS011;62979;55.720;37.606;2022-08-21T13:43:17;19.98;;;5.95;;
74495;SDS011;62979;55.720;37.606;2022-08-21T13:45:52;18.75;;;6.63;;
74495;SDS011;62979;55.720;37.606;2022-08-21T13:48:22;16.92;;;5.70;;
74495;SDS011;62979;55.720;37.606;2022-08-21T13:50:55;16.50;;;6.70;;
74495;SDS011;62979;55.720;37.606;2022-08-21T13:53:27;13.95;;;6.65;;
74495;SDS011;62979;55.720;37.606;2022-08-21T13:55:57;14.32;;;6.10;;
74495;SDS011;62979;55.720;37.606;2022-08-21T13:58:27;18.45;;;7.13;;
74495;SDS011;62979;55.720;37.606;2022-08-21T14:00:57;14.13;;;5.95;;
74495;SDS011;62979;55.720;37.606;2022-08-21T14:03:30;11.20;;;5.85;;
74495;SDS011;62979;55.720;37.606;2022-08-21T14:06:03;18.33;;;5.90;;
74495;SDS011;62979;55.720;37.606;2022-08-21T14:08:41;14.32;;;5.75;;
74495;SDS011;62979;55.720;37.606;2022-08-21T14:11:14;16.00;;;7.10;;
74495;SDS011;62979;55.720;37.606;2022-08-21T14:13:43;18.20;;;8.23;;
74495;SDS011;62979;55.720;37.606;2022-08-21T14:18:46;12.35;;;5.20;;
74495;SDS011;62979;55.720;37.606;2022-08-21T14:21:27;10.88;;;5.15;;
74495;SDS011;62979;55.720;37.606;2022-08-21T14:24:02;10.27;;;4.10;;
74495;SDS011;62979;55.720;37.606;2022-08-21T14:26:34;12.20;;;4.22;;
74495;SDS011;62979;55.720;37.606;2022-08-21T14:29:06;7.32;;;3.33;;
74495;SDS011;62979;55.720;37.606;2022-08-21T14:31:35;9.30;;;3.85;;
74495;SDS011;62979;55.720;37.606;2022-08-21T14:34:03;12.85;;;2.70;;
74495;SDS011;62979;55.720;37.606;2022-08-21T14:36:31;5.28;;;2.17;;
74495;SDS011;62979;55.720;37.606;2022-08-21T14:38:58;5.05;;;2.55;;
74495;SDS011;62979;55.720;37.606;2022-08-21T14:41:25;9.18;;;2.63;;
74495;SDS011;62979;55.720;37.606;2022-08-21T14:43:55;9.35;;;2.58;;
74495;SDS011;62979;55.720;37.606;2022-08-21T14:46:24;8.23;;;2.72;;
74495;SDS011;62979;55.720;37.606;2022-08-21T14:48:55;9.70;;;3.50;;
74495;SDS011;62979;55.720;37.606;2022-08-21T14:51:22;9.32;;;2.22;;
74495;SDS011;62979;55.720;37.606;2022-08-21T14:53:51;5.35;;;2.08;;
74495;SDS011;62979;55.720;37.606;2022-08-21T14:56:18;7.88;;;2.97;;
74495;SDS011;62979;55.720;37.606;2022-08-21T14:58:47;6.00;;;1.90;;
74495;SDS011;62979;55.720;37.606;2022-08-21T15:01:17;5.85;;;1.83;;
74495;SDS011;62979;55.720;37.606;2022-08-21T15:03:47;7.32;;;2.20;;
74495;SDS011;62979;55.720;37.606;2022-08-21T15:06:16;6.47;;;1.70;;
74495;SDS011;62979;55.720;37.606;2022-08-21T15:08:46;7.40;;;1.25;;
74495;SDS011;62979;55.720;37.606;2022-08-21T15:11:16;7.55;;;2.97;;
74495;SDS011;62979;55.720;37.606;2022-08-21T15:13:45;7.25;;;2.20;;
74495;SDS011;62979;55.720;37.606;2022-08-21T15:16:17;5.38;;;1.65;;